Air Resources Laboratory banner image
Air Resources Laboratory web site National Oceanic and Atmospheric Administration (NOAA)

ky metar


KBWG 130853Z AUTO 20003KT 10SM CLR M06/M11 A3006 RMK AO2 SLP184 T10561111 58012=
KCVG 130852Z 23005KT 10SM CLR M09/M13 A2995 RMK AO2 SLP153 T10891128 56009=
KEHR 130856Z AUTO 19005KT 10SM CLR M05/M09 A3002 RMK AO2 SLP180 T10501094 56022
 FZRANO=
KEKX 130855Z AUTO 20004KT 10SM CLR M08/M12 A3001 RMK AO2 T10771117=
KFFT 130853Z AUTO 22005KT 10SM BKN050 M08/M13 A2999 RMK AO2 SLP163 T10781133
 58010=
KFTK 130856Z AUTO 00000KT 10SM CLR M08/M13 A2998 RMK AO2 SLP164 T10801127 57019=
KHOP 130858Z AUTO 21005KT 10SM CLR M06/M11 A3005 RMK AO2 SLP183 T10601115 57014
 FZRANO $=
KJKL 130853Z AUTO 22003KT 10SM CLR M08/M13 A2997 RMK AO2 SLP162 T10781133 58001=
KLEX 130854Z 22005KT 10SM CLR M08/M13 A2999 RMK AO2 SLP166 T10781133 58007 $=
KLOU 130853Z AUTO 19004KT 10SM CLR M06/M12 A3002 RMK AO2 SLP170 T10611122 56018=
KLOZ 130853Z AUTO 00000KT 10SM CLR M07/M13 A3001 RMK AO2 SLP173 T10671133 58004
 $=
KOWB 130856Z AUTO 17003KT 10SM CLR M06/M10 A3003 RMK AO2 SLP183 T10611100 56020=
KPAH 130853Z AUTO 20006KT 10SM CLR M02/M12 A3003 RMK AO2 SLP174 T10221122 58018=
KSDF 130856Z 21006KT 10SM CLR M04/M13 A3000 RMK AO2 SLP164 T10391133 56020=
KSME 130855Z AUTO 18003KT 10SM CLR M07/M12 A3005 RMK AO2=